Woodhall, United Kingdom
Current Conditions -  °F | °C
As of 7:50 AM on Saturday 27 Dec 2014 (Local Time) from EGXC Reporting Station
Light Rain Light Rain  
Wind Chill: 27°   Ceiling: 1800
Heat Index: 36°   Visibility: 5mi
Dew Point: 34°   Wind: 14mph
Humidity: 93%   Direction: 330°NNW
Pressure: 29.77"   Gusts: NA
Location:  53.1°N, 0.18°W
Report Text: EGXC 270750Z 33012KT 8000 -RA SCT008 BKN018 02/01 Q1008 GRN
Loading
Personal Weather Stations






























Interactive Weather Map New forecast layout! Learn more

10-Day Weather Forecast

Advertisements
Track Severe Weather on mobile